createdAt,value
2023-02-11T00:01:11.954Z,81.10
2023-02-11T00:03:38.687Z,81.20
2023-02-11T00:06:06.820Z,81.20
2023-02-11T00:08:33.466Z,81.20
2023-02-11T00:11:00.152Z,81.10
2023-02-11T00:13:26.941Z,81.30
2023-02-11T00:15:54.101Z,81.30
2023-02-11T00:18:23.000Z,81.40
2023-02-11T00:20:52.657Z,81.50
2023-02-11T00:23:19.320Z,81.50
2023-02-11T00:25:46.082Z,81.60
2023-02-11T00:28:12.859Z,81.80
2023-02-11T00:30:39.718Z,81.80
2023-02-11T00:33:06.389Z,81.90
2023-02-11T00:35:33.062Z,81.80
2023-02-11T00:37:59.758Z,81.70
2023-02-11T00:40:26.362Z,81.70
2023-02-11T00:42:52.985Z,81.70
2023-02-11T00:45:19.636Z,81.80
2023-02-11T00:47:46.255Z,81.80
2023-02-11T00:50:12.898Z,82.00
2023-02-11T00:52:39.641Z,81.90
2023-02-11T00:55:06.729Z,81.90
2023-02-11T00:57:33.455Z,82.00
2023-02-11T01:00:00.051Z,82.00
2023-02-11T01:02:26.778Z,81.90
2023-02-11T01:04:53.446Z,82.00
2023-02-11T01:07:20.194Z,82.10
2023-02-11T01:09:46.973Z,82.30
2023-02-11T01:12:13.595Z,82.20
2023-02-11T01:14:40.301Z,82.20
2023-02-11T01:17:06.966Z,82.20
2023-02-11T01:19:33.725Z,82.20
2023-02-11T01:22:00.376Z,82.20
2023-02-11T01:24:27.056Z,82.30
2023-02-11T01:26:53.768Z,82.30
2023-02-11T01:29:20.523Z,82.30
2023-02-11T01:31:47.463Z,82.40
2023-02-11T01:34:14.247Z,82.50
2023-02-11T01:36:41.150Z,82.50
2023-02-11T01:39:08.190Z,82.50
2023-02-11T01:41:35.340Z,82.50
2023-02-11T01:44:24.400Z,82.50
2023-02-11T01:46:51.144Z,82.50
2023-02-11T01:49:21.080Z,82.60
2023-02-11T01:51:51.850Z,82.80
2023-02-11T01:54:21.078Z,83.10
2023-02-11T01:56:49.492Z,82.70
2023-02-11T01:59:32.919Z,82.60
2023-02-11T02:02:02.835Z,82.70
2023-02-11T02:04:30.365Z,82.80
2023-02-11T02:07:01.041Z,83.20
2023-02-11T02:09:29.367Z,82.80
2023-02-11T02:11:56.071Z,83.00
2023-02-11T02:14:22.742Z,82.90
2023-02-11T02:16:49.450Z,83.00
2023-02-11T02:19:39.995Z,83.00
2023-02-11T02:22:21.630Z,83.20
2023-02-11T02:24:53.852Z,83.30
2023-02-11T02:27:45.990Z,83.20
2023-02-11T02:30:33.596Z,83.40
2023-02-11T02:33:32.215Z,83.30
2023-02-11T02:36:10.293Z,83.20
2023-02-11T02:38:48.706Z,83.30
2023-02-11T02:41:30.133Z,83.30
2023-02-11T02:43:56.803Z,83.20
2023-02-11T02:46:28.623Z,83.20
2023-02-11T02:48:55.619Z,83.40
2023-02-11T02:51:38.751Z,83.80
2023-02-11T02:54:23.860Z,83.70
2023-02-11T02:57:14.603Z,83.70
2023-02-11T03:00:11.648Z,83.80
2023-02-11T03:03:02.739Z,83.80
2023-02-11T03:06:04.626Z,83.70
2023-02-11T03:08:44.165Z,83.60
2023-02-11T03:11:11.082Z,83.40
2023-02-11T03:13:38.065Z,83.50
2023-02-11T03:16:10.782Z,83.40
2023-02-11T03:18:37.618Z,83.70
2023-02-11T03:21:04.871Z,83.90
2023-02-11T03:23:39.282Z,83.90
2023-02-11T03:26:12.310Z,84.20
2023-02-11T03:28:49.514Z,84.20
2023-02-11T03:31:39.529Z,84.40
2023-02-11T03:34:14.700Z,84.60
2023-02-11T03:37:09.824Z,84.60
2023-02-11T03:39:43.540Z,84.60
2023-02-11T03:42:10.548Z,84.80
2023-02-11T03:44:40.332Z,84.90
2023-02-11T03:47:08.170Z,84.90
2023-02-11T03:49:35.283Z,85.00
2023-02-11T03:52:01.893Z,85.10
2023-02-11T03:54:30.070Z,85.20
2023-02-11T03:56:58.481Z,85.10
2023-02-11T03:59:25.454Z,85.50
2023-02-11T04:01:52.320Z,85.50
2023-02-11T04:04:19.061Z,85.40
2023-02-11T04:06:45.753Z,85.40
2023-02-11T04:09:12.472Z,85.50
2023-02-11T04:11:39.076Z,85.70
2023-02-11T04:14:05.690Z,85.70
2023-02-11T04:16:32.339Z,85.70
2023-02-11T04:18:58.999Z,86.00
2023-02-11T04:21:25.654Z,85.80
2023-02-11T04:23:52.299Z,85.70
2023-02-11T04:26:18.995Z,85.70
2023-02-11T04:28:45.727Z,85.70
2023-02-11T04:31:12.435Z,85.60
2023-02-11T04:33:39.122Z,85.70
2023-02-11T04:36:06.058Z,85.80
2023-02-11T04:38:32.713Z,85.90
2023-02-11T04:40:59.408Z,86.30
2023-02-11T04:43:26.052Z,86.40
2023-02-11T04:45:53.117Z,86.80
2023-02-11T04:48:19.924Z,86.90
2023-02-11T04:50:46.582Z,86.80
2023-02-11T04:53:13.237Z,86.80
2023-02-11T04:55:39.923Z,86.80
2023-02-11T04:58:06.537Z,86.80
2023-02-11T05:00:33.130Z,87.10
2023-02-11T05:02:59.780Z,87.10
2023-02-11T05:05:26.431Z,87.10
2023-02-11T05:07:53.053Z,87.10
2023-02-11T05:10:19.669Z,87.20
2023-02-11T05:12:48.536Z,87.10
2023-02-11T05:15:15.643Z,87.40
2023-02-11T05:17:42.321Z,87.70
2023-02-11T05:20:09.623Z,87.60
2023-02-11T05:22:36.475Z,87.60
2023-02-11T05:25:03.267Z,87.70
2023-02-11T05:27:29.974Z,87.60
2023-02-11T05:29:56.692Z,88.00
2023-02-11T05:32:23.473Z,87.80
2023-02-11T05:34:50.097Z,87.90
2023-02-11T05:37:17.128Z,88.10
2023-02-11T05:39:43.750Z,88.30
2023-02-11T05:42:10.457Z,88.50
2023-02-11T05:44:37.265Z,88.60
2023-02-11T05:47:04.064Z,88.80
2023-02-11T05:49:30.753Z,88.50
2023-02-11T05:51:57.658Z,88.40
2023-02-11T05:54:27.000Z,88.40
2023-02-11T05:56:53.671Z,88.50
2023-02-11T05:59:20.303Z,88.50
2023-02-11T06:01:47.045Z,88.60
2023-02-11T06:04:13.783Z,88.60
2023-02-11T06:06:40.428Z,88.90
2023-02-11T06:09:07.125Z,88.80
2023-02-11T06:11:33.787Z,88.80
2023-02-11T06:14:01.432Z,88.80
2023-02-11T06:16:28.190Z,88.70
2023-02-11T06:18:54.926Z,89.10
2023-02-11T06:21:21.578Z,89.30
2023-02-11T06:23:48.270Z,89.60
2023-02-11T06:26:20.787Z,89.40
2023-02-11T06:28:47.519Z,89.40
2023-02-11T06:31:14.343Z,89.40
2023-02-11T06:33:40.999Z,89.40
2023-02-11T06:36:15.756Z,89.40
2023-02-11T06:38:42.408Z,89.30
2023-02-11T06:41:12.933Z,89.50
2023-02-11T06:43:39.920Z,89.70
2023-02-11T06:46:06.702Z,90.30
2023-02-11T06:48:33.738Z,90.30
2023-02-11T06:51:08.154Z,90.10
2023-02-11T06:53:36.096Z,90.10
2023-02-11T06:56:07.359Z,90.00
2023-02-11T06:58:34.126Z,90.20
2023-02-11T07:01:02.092Z,90.50
2023-02-11T07:03:28.742Z,90.10
2023-02-11T07:05:55.459Z,90.50
2023-02-11T07:08:22.451Z,90.90
2023-02-11T07:10:49.464Z,90.80
2023-02-11T07:16:32.774Z,91.20
2023-02-11T07:22:16.732Z,91.00
2023-02-11T07:24:43.508Z,91.20
2023-02-11T07:27:10.235Z,91.00
2023-02-11T07:29:36.849Z,91.30
2023-02-11T07:32:03.636Z,91.30
2023-02-11T07:34:30.351Z,91.30
2023-02-11T07:36:57.033Z,91.30
2023-02-11T07:39:23.699Z,91.50
2023-02-11T07:41:50.355Z,91.60
2023-02-11T07:44:20.045Z,91.60
2023-02-11T07:46:46.790Z,91.40
2023-02-11T07:49:13.481Z,91.50
2023-02-11T07:51:40.233Z,91.60
2023-02-11T07:54:15.855Z,91.50
2023-02-11T07:56:43.674Z,91.50
2023-02-11T07:59:23.580Z,91.60
2023-02-11T08:01:53.981Z,91.50
2023-02-11T08:04:22.711Z,91.50
2023-02-11T08:06:49.369Z,91.50
2023-02-11T08:09:16.807Z,91.50
2023-02-11T08:11:43.646Z,91.40
2023-02-11T08:14:19.915Z,91.50
2023-02-11T08:16:46.710Z,91.50
2023-02-11T08:19:19.295Z,91.50
2023-02-11T08:21:54.689Z,91.50
2023-02-11T08:24:21.311Z,91.50
2023-02-11T08:26:47.959Z,91.50
2023-02-11T08:29:14.810Z,91.50
2023-02-11T08:31:44.834Z,91.60
2023-02-11T08:34:16.305Z,91.60
2023-02-11T08:36:45.484Z,91.70
2023-02-11T08:39:21.039Z,91.70
2023-02-11T08:41:51.690Z,91.70
2023-02-11T08:44:41.870Z,91.70
2023-02-11T08:47:19.474Z,91.70
2023-02-11T08:49:47.595Z,91.80
2023-02-11T08:52:14.219Z,91.80
2023-02-11T08:54:40.827Z,91.70
2023-02-11T08:57:07.646Z,91.70
2023-02-11T08:59:34.274Z,91.70
2023-02-11T09:02:00.940Z,91.80
2023-02-11T09:04:27.612Z,91.80
2023-02-11T09:06:54.276Z,91.80
2023-02-11T09:09:20.995Z,91.70
2023-02-11T09:11:47.674Z,91.80
2023-02-11T09:14:24.026Z,91.70
2023-02-11T09:16:51.053Z,91.60
2023-02-11T09:19:17.916Z,91.80
2023-02-11T09:21:44.599Z,91.70
2023-02-11T09:24:11.440Z,91.70
2023-02-11T09:26:38.233Z,91.80
2023-02-11T09:29:05.036Z,91.80
2023-02-11T09:31:32.543Z,91.80
2023-02-11T09:34:03.958Z,91.80
2023-02-11T09:36:32.546Z,91.90
2023-02-11T09:39:00.420Z,91.90
2023-02-11T09:41:55.902Z,91.90
2023-02-11T09:44:25.012Z,91.80
2023-02-11T09:47:02.283Z,91.70
2023-02-11T09:49:44.973Z,91.60
2023-02-11T09:52:31.933Z,91.50
2023-02-11T09:55:00.409Z,91.40
2023-02-11T09:57:36.472Z,91.20
2023-02-11T10:00:12.444Z,91.10
2023-02-11T10:03:01.088Z,90.90
2023-02-11T10:06:09.259Z,90.80
2023-02-11T10:09:20.315Z,90.80
2023-02-11T10:12:05.797Z,90.70
2023-02-11T10:14:42.554Z,90.80
2023-02-11T10:17:12.144Z,90.70
2023-02-11T10:20:00.854Z,90.70
2023-02-11T10:22:37.640Z,90.70
2023-02-11T10:25:17.169Z,90.70
2023-02-11T10:27:43.908Z,90.70
2023-02-11T10:30:30.942Z,90.80
2023-02-11T10:33:00.104Z,90.80
2023-02-11T10:35:26.767Z,90.80
2023-02-11T10:37:54.506Z,90.80
2023-02-11T10:40:25.725Z,90.80
2023-02-11T10:42:55.755Z,90.80
2023-02-11T10:45:24.257Z,90.80
2023-02-11T10:47:51.006Z,90.90
2023-02-11T10:50:29.013Z,90.90
2023-02-11T10:53:13.066Z,90.80
2023-02-11T10:55:39.756Z,90.80
2023-02-11T10:58:06.459Z,90.70
2023-02-11T11:00:38.352Z,90.50
2023-02-11T11:03:19.279Z,90.30
2023-02-11T11:05:48.716Z,90.20
2023-02-11T11:08:15.359Z,90.30
2023-02-11T11:10:46.934Z,90.40
2023-02-11T11:13:32.866Z,90.30
2023-02-11T11:16:10.195Z,90.20
2023-02-11T11:18:36.958Z,90.20
2023-02-11T11:21:07.606Z,90.20
2023-02-11T11:23:36.858Z,90.10
2023-02-11T11:26:03.594Z,90.10
2023-02-11T11:28:32.018Z,90.10
2023-02-11T11:30:58.813Z,90.10
2023-02-11T11:33:28.041Z,90.00
2023-02-11T11:36:21.854Z,90.00
2023-02-11T11:38:57.518Z,89.90
2023-02-11T11:41:33.926Z,89.90
2023-02-11T11:44:27.016Z,89.90
2023-02-11T11:47:10.955Z,89.90
2023-02-11T11:50:02.578Z,90.00
2023-02-11T11:52:58.927Z,89.80
2023-02-11T11:55:29.179Z,89.60
2023-02-11T11:57:55.895Z,89.60
2023-02-11T12:00:52.227Z,89.40
2023-02-11T12:03:43.531Z,89.20
2023-02-11T12:06:31.445Z,89.10
2023-02-11T12:09:04.023Z,89.00
2023-02-11T12:11:59.308Z,88.90
2023-02-11T12:14:53.607Z,88.80
2023-02-11T12:17:58.034Z,88.60
2023-02-11T12:20:50.613Z,88.50
2023-02-11T12:23:35.784Z,88.50
2023-02-11T12:26:12.821Z,88.60
2023-02-11T12:29:00.696Z,88.60
2023-02-11T12:31:51.777Z,88.50
2023-02-11T12:34:21.272Z,88.60
2023-02-11T12:37:03.144Z,88.40
2023-02-11T12:39:37.298Z,88.40
2023-02-11T12:42:12.893Z,88.20
2023-02-11T12:45:09.303Z,88.20
2023-02-11T12:47:51.996Z,88.00
2023-02-11T12:51:12.921Z,87.90
2023-02-11T12:54:05.283Z,87.70
2023-02-11T12:56:52.310Z,87.70
2023-02-11T12:59:37.768Z,87.70
2023-02-11T13:02:10.413Z,87.50
2023-02-11T13:04:41.654Z,87.40
2023-02-11T13:07:17.429Z,87.30
2023-02-11T13:09:49.048Z,87.20
2023-02-11T13:12:15.637Z,87.20
2023-02-11T13:14:43.658Z,87.20
2023-02-11T13:17:38.348Z,87.10
2023-02-11T13:20:31.514Z,86.90
2023-02-11T13:23:31.721Z,86.80
2023-02-11T13:26:05.934Z,86.50
2023-02-11T13:28:44.189Z,86.60
2023-02-11T13:31:11.085Z,86.50
2023-02-11T13:33:38.914Z,86.40
2023-02-11T13:36:05.543Z,86.30
2023-02-11T13:38:32.295Z,86.10
2023-02-11T13:41:17.584Z,86.00
2023-02-11T13:43:44.284Z,85.90
2023-02-11T13:46:12.181Z,85.80
2023-02-11T13:48:49.568Z,85.60
2023-02-11T13:51:17.768Z,85.40
2023-02-11T13:53:51.623Z,85.30
2023-02-11T13:56:37.873Z,85.10
2023-02-11T13:59:25.616Z,85.10
2023-02-11T14:02:25.649Z,85.00
2023-02-11T14:05:04.732Z,84.80
2023-02-11T14:07:32.975Z,84.80
2023-02-11T14:09:59.636Z,84.70
2023-02-11T14:12:32.357Z,84.60
2023-02-11T14:15:10.906Z,84.40
2023-02-11T14:17:37.609Z,84.40
2023-02-11T14:20:05.431Z,84.40
2023-02-11T14:22:43.218Z,84.20
2023-02-11T14:25:19.229Z,84.20
2023-02-11T14:27:51.008Z,84.10
2023-02-11T14:30:30.378Z,83.90
2023-02-11T14:33:23.696Z,83.80
2023-02-11T14:36:12.309Z,83.70
2023-02-11T14:39:02.004Z,83.30
2023-02-11T14:41:34.915Z,83.40
2023-02-11T14:44:10.536Z,83.20
2023-02-11T14:46:37.246Z,83.10
2023-02-11T14:49:04.214Z,83.00
2023-02-11T14:51:39.798Z,83.00
2023-02-11T14:54:17.223Z,82.90
2023-02-11T14:56:43.938Z,82.90
2023-02-11T14:59:21.580Z,82.80
2023-02-11T15:01:52.267Z,82.60
2023-02-11T15:04:29.015Z,82.50
2023-02-11T15:06:56.412Z,82.40
2023-02-11T15:09:37.246Z,82.50
2023-02-11T15:12:04.202Z,82.30
2023-02-11T15:14:37.253Z,82.30
2023-02-11T15:17:05.874Z,82.30
2023-02-11T15:19:36.899Z,82.20
2023-02-11T15:22:05.158Z,82.20
2023-02-11T15:24:35.101Z,82.00
2023-02-11T15:27:28.095Z,81.90
2023-02-11T15:29:55.176Z,81.60
2023-02-11T15:32:24.392Z,81.70
2023-02-11T15:34:52.630Z,81.80
2023-02-11T15:37:20.345Z,81.70
2023-02-11T15:39:48.224Z,81.80
2023-02-11T15:42:47.239Z,81.80
2023-02-11T15:45:27.571Z,81.70
2023-02-11T15:47:59.285Z,81.80
2023-02-11T15:50:30.512Z,81.70
2023-02-11T15:53:02.666Z,81.80
2023-02-11T15:55:29.355Z,81.80
2023-02-11T15:58:00.762Z,81.80
2023-02-11T16:00:33.296Z,81.90
2023-02-11T16:03:00.216Z,81.80
2023-02-11T16:05:34.971Z,81.80
2023-02-11T16:08:12.038Z,81.80
2023-02-11T16:10:38.732Z,81.90
2023-02-11T16:13:08.486Z,81.90
2023-02-11T16:15:35.089Z,81.90
2023-02-11T16:18:03.551Z,82.00
2023-02-11T16:20:30.303Z,81.90
2023-02-11T16:22:57.001Z,81.90
2023-02-11T16:25:23.592Z,82.00
2023-02-11T16:27:52.030Z,82.10
2023-02-11T16:30:35.289Z,82.20
2023-02-11T16:33:02.249Z,82.30
2023-02-11T16:35:29.073Z,82.30
2023-02-11T16:37:55.756Z,82.40
2023-02-11T16:40:22.506Z,82.40
2023-02-11T16:42:49.804Z,82.40
2023-02-11T16:45:16.587Z,82.40
2023-02-11T16:47:43.236Z,82.50
2023-02-11T16:50:11.119Z,82.60
2023-02-11T16:52:37.792Z,82.50
2023-02-11T16:55:05.093Z,82.50
2023-02-11T16:57:31.771Z,82.50
2023-02-11T17:00:03.508Z,82.50
2023-02-11T17:02:33.973Z,82.40
2023-02-11T17:05:08.238Z,82.40
2023-02-11T17:07:34.946Z,82.30
2023-02-11T17:10:01.839Z,82.30
2023-02-11T17:12:28.680Z,82.20
2023-02-11T17:14:55.396Z,82.20
2023-02-11T17:17:22.234Z,82.10
2023-02-11T17:19:48.962Z,82.00
2023-02-11T17:22:15.759Z,81.80
2023-02-11T17:24:42.580Z,81.80
2023-02-11T17:27:11.275Z,81.70
2023-02-11T17:29:37.902Z,81.70
2023-02-11T17:32:04.679Z,81.60
2023-02-11T17:34:31.433Z,81.40
2023-02-11T17:36:58.316Z,81.30
2023-02-11T17:39:25.254Z,81.30
2023-02-11T17:41:51.914Z,81.20
2023-02-11T17:44:18.652Z,81.10
2023-02-11T17:46:45.313Z,81.00
2023-02-11T17:49:12.216Z,81.00
2023-02-11T17:51:39.292Z,80.90
2023-02-11T17:54:14.370Z,80.80
2023-02-11T17:56:41.325Z,80.70
2023-02-11T17:59:08.887Z,80.70
2023-02-11T18:01:36.328Z,80.70
2023-02-11T18:04:03.604Z,80.60
2023-02-11T18:06:30.348Z,80.50
2023-02-11T18:09:00.294Z,80.40
2023-02-11T18:11:27.008Z,80.20
2023-02-11T18:13:53.671Z,80.20
2023-02-11T18:16:21.639Z,80.10
2023-02-11T18:18:48.367Z,80.00
2023-02-11T18:21:15.834Z,79.80
2023-02-11T18:23:42.812Z,79.70
2023-02-11T18:26:10.473Z,79.50
2023-02-11T18:28:37.376Z,79.40
2023-02-11T18:31:04.386Z,79.20
2023-02-11T18:33:32.519Z,79.00
2023-02-11T18:35:59.182Z,78.80
2023-02-11T18:38:25.832Z,78.50
2023-02-11T18:40:52.500Z,78.60
2023-02-11T18:43:22.064Z,78.40
2023-02-11T18:45:49.392Z,78.30
2023-02-11T18:48:16.769Z,78.30
2023-02-11T18:50:44.180Z,78.30
2023-02-11T18:53:11.565Z,78.30
2023-02-11T18:55:42.550Z,78.30
2023-02-11T18:58:09.347Z,78.30
2023-02-11T19:00:37.171Z,78.40
2023-02-11T19:03:03.912Z,78.40
2023-02-11T19:05:30.871Z,78.40
2023-02-11T19:07:57.648Z,78.40
2023-02-11T19:10:25.070Z,78.40
2023-02-11T19:12:55.549Z,78.40
2023-02-11T19:15:22.820Z,78.40
2023-02-11T19:17:49.559Z,78.30
2023-02-11T19:20:16.506Z,78.10
2023-02-11T19:22:43.478Z,77.90
2023-02-11T19:25:10.254Z,77.70
2023-02-11T19:27:37.062Z,77.80
2023-02-11T19:30:04.605Z,77.70
2023-02-11T19:32:31.424Z,77.60
2023-02-11T19:34:58.129Z,77.50
2023-02-11T19:37:24.884Z,77.50
2023-02-11T19:39:51.523Z,77.50
2023-02-11T19:42:18.310Z,77.50
2023-02-11T19:44:45.090Z,77.60
2023-02-11T19:47:11.675Z,77.60
2023-02-11T19:49:38.517Z,77.80
2023-02-11T19:52:05.293Z,77.80
2023-02-11T19:54:32.053Z,77.80
2023-02-11T19:56:59.157Z,77.80
2023-02-11T19:59:26.016Z,77.70
2023-02-11T20:01:52.765Z,77.70
2023-02-11T20:04:19.547Z,77.80
2023-02-11T20:06:46.257Z,77.80
2023-02-11T20:09:14.024Z,77.80
2023-02-11T20:11:40.917Z,77.70
2023-02-11T20:14:07.762Z,77.70
2023-02-11T20:16:47.639Z,77.70
2023-02-11T20:19:19.786Z,77.70
2023-02-11T20:21:47.775Z,77.70
2023-02-11T20:24:18.326Z,77.80
2023-02-11T20:26:45.500Z,77.90
2023-02-11T20:29:12.157Z,77.80
2023-02-11T20:31:39.033Z,77.50
2023-02-11T20:34:05.832Z,77.50
2023-02-11T20:36:33.309Z,77.50
2023-02-11T20:39:00.286Z,77.50
2023-02-11T20:41:29.756Z,77.40
2023-02-11T20:43:59.137Z,77.40
2023-02-11T20:46:26.863Z,77.50
2023-02-11T20:48:54.451Z,77.60
2023-02-11T20:51:26.140Z,77.60
2023-02-11T20:53:52.825Z,77.40
2023-02-11T20:56:24.698Z,77.40
2023-02-11T20:58:51.486Z,77.40
2023-02-11T21:01:19.040Z,77.60
2023-02-11T21:03:49.821Z,77.50
2023-02-11T21:06:16.904Z,77.50
2023-02-11T21:08:43.568Z,77.60
2023-02-11T21:11:10.870Z,77.70
2023-02-11T21:13:38.431Z,77.70
2023-02-11T21:16:05.865Z,77.70
2023-02-11T21:18:32.643Z,77.60
2023-02-11T21:20:59.454Z,77.50
2023-02-11T21:23:26.231Z,77.50
2023-02-11T21:25:56.650Z,77.30
2023-02-11T21:28:24.065Z,77.20
2023-02-11T21:30:50.856Z,77.20
2023-02-11T21:33:17.750Z,77.10
2023-02-11T21:35:44.358Z,77.00
2023-02-11T21:38:11.197Z,77.10
2023-02-11T21:40:38.110Z,77.20
2023-02-11T21:43:05.197Z,77.20
2023-02-11T21:45:32.485Z,77.30
2023-02-11T21:48:00.490Z,77.40
2023-02-11T21:50:27.195Z,77.40
2023-02-11T21:52:53.853Z,77.50
2023-02-11T21:55:20.743Z,77.60
2023-02-11T21:57:47.398Z,77.80
2023-02-11T22:00:14.987Z,78.00
2023-02-11T22:02:41.656Z,78.00
2023-02-11T22:05:08.566Z,78.00
2023-02-11T22:07:35.865Z,78.10
2023-02-11T22:10:03.520Z,78.10
2023-02-11T22:12:30.135Z,78.40
2023-02-11T22:14:56.821Z,78.50
2023-02-11T22:17:23.513Z,78.50
2023-02-11T22:19:50.250Z,78.30
2023-02-11T22:22:16.918Z,78.00
2023-02-11T22:24:44.202Z,77.90
2023-02-11T22:27:10.819Z,77.80
2023-02-11T22:29:37.583Z,77.80
2023-02-11T22:32:04.539Z,77.70
2023-02-11T22:34:31.199Z,77.70
2023-02-11T22:36:57.808Z,77.80
2023-02-11T22:39:27.511Z,77.80
2023-02-11T22:42:04.454Z,77.90
2023-02-11T22:44:31.101Z,77.90
2023-02-11T22:46:57.726Z,77.90
2023-02-11T22:49:24.331Z,78.10
2023-02-11T22:51:51.008Z,78.20
2023-02-11T22:54:18.780Z,78.50
2023-02-11T22:56:45.724Z,78.40
2023-02-11T22:59:13.564Z,78.60
2023-02-11T23:01:40.361Z,78.50
2023-02-11T23:04:07.821Z,78.50
2023-02-11T23:06:34.824Z,78.40
2023-02-11T23:09:03.672Z,78.60
2023-02-11T23:11:30.922Z,78.60
2023-02-11T23:13:57.670Z,78.80
2023-02-11T23:16:29.169Z,78.90
2023-02-11T23:18:55.888Z,78.80
2023-02-11T23:21:24.342Z,78.80
2023-02-11T23:23:58.109Z,78.80
2023-02-11T23:26:24.890Z,78.80
2023-02-11T23:28:51.686Z,78.90
2023-02-11T23:31:20.377Z,78.70
2023-02-11T23:33:47.402Z,78.70
2023-02-11T23:36:14.246Z,78.70
2023-02-11T23:38:40.908Z,78.60
2023-02-11T23:41:07.688Z,78.70
2023-02-11T23:43:34.383Z,78.90
2023-02-11T23:46:01.069Z,78.90
2023-02-11T23:48:27.680Z,79.00
2023-02-11T23:50:54.386Z,79.00
2023-02-11T23:53:21.076Z,79.10
2023-02-11T23:55:47.690Z,79.20
2023-02-11T23:58:14.405Z,79.20
